Wilson Norfolk — 9HA2466 — position and weather

sailwx.info

Track history (hours):
 
Tides and Currents Weather Stations Pressure Air Temp Water Temp Dewpoint Dewpoint Depression Visibility Wind Speed Wind Dir Waves Ship Positions

Wilson Norfolk

Last reported at 2015-Jan-27 05:28 UTC. Time now 2015-Jan-28 22:19 UTC.
Position N 55°27' E 015°42'.

Length 123 m; draft 7.3 m.

Type: Ship. MMSI: 248678000.

Date/timePositionNaut miles runAvg speedWind from/ knotsBaromVisibWave heightAir tempDewpointWater temp
2015-Jan-27 05:28N 55°27' E 015°42'1212.6
2015-Jan-27 04:33N 55°26' E 015°22'1312.6
2015-Jan-27 03:33N 55°25' E 015°00'1312.3
2015-Jan-27 02:32N 55°22' E 014°39'1212.2
2015-Jan-27 01:33N 55°13' E 014°25'3612.0
2015-Jan-26 22:33N 55°11' E 013°22'1312.6
2015-Jan-26 21:33N 55°13' E 012°60'1312.9
2015-Jan-26 20:33N 55°18' E 012°39'1211.8
2015-Jan-26 19:33N 55°30' E 012°41'9 9.3
2015-Jan-26 18:33N 55°39' E 012°41'10 9.9
2015-Jan-26 17:33N 55°49' E 012°42'1010.2
2015-Jan-26 16:33N 55°59' E 012°40'9 9.3
2015-Jan-26 15:33N 56°07' E 012°31'1110.9
2015-Jan-26 14:33N 56°13' E 012°15'1010.5
2015-Jan-26 13:33N 56°20' E 012°02'1110.5
2015-Jan-26 12:33N 56°31' E 011°58'1010.0
2015-Jan-26 11:33N 56°40' E 011°54'1010.2
2015-Jan-26 10:33N 56°50' E 011°48'1010.0
2015-Jan-26 09:33N 56°60' E 011°43'1010.0
2015-Jan-26 08:33N 57°09' E 011°36'1010.1
2015-Jan-26 07:33N 57°18' E 011°30'1010.4
2015-Jan-26 06:33N 57°28' E 011°23'1110.7
2015-Jan-26 05:33N 57°35' E 011°09'1111.2
2015-Jan-26 04:33N 57°43' E 010°53'1111.6
2015-Jan-26 03:33N 57°47' E 010°33'14811.0
2015-Jan-25 14:04N 58°00' E 005°56'610.5
2015-Jan-25 13:29N 58°04' E 005°47'1110.8
2015-Jan-25 12:27N 58°11' E 005°31'1410.6
2015-Jan-25 11:09N 58°22' E 005°13'710.9
2015-Jan-25 10:28N 58°29' E 005°16'1211.3
2015-Jan-25 09:26N 58°40' E 005°20'1011.2
2015-Jan-25 08:33N 58°50' E 005°26'1110.6
2015-Jan-25 07:33N 58°60' E 005°33'9 9.0
2015-Jan-25 06:33N 59°02' E 005°50'4 4.1
2015-Jan-25 05:33N 59°05' E 005°54'0 0.0
2015-Jan-25 04:33N 59°05' E 005°54'0 0.0
2015-Jan-25 03:33N 59°05' E 005°54'0 0.0
2015-Jan-25 02:33N 59°05' E 005°54'0 0.0
2015-Jan-25 01:33N 59°05' E 005°54'0 0.0
2015-Jan-25 00:33N 59°05' E 005°54'0 0.0
2015-Jan-24 23:33N 59°05' E 005°54'0 0.0
2015-Jan-24 22:33N 59°05' E 005°54'0 0.0
2015-Jan-24 21:33N 59°05' E 005°54'0 0.0
2015-Jan-24 20:33N 59°05' E 005°54'0 0.0
2015-Jan-24 19:33N 59°05' E 005°54'0 0.0
2015-Jan-24 18:33N 59°05' E 005°54'2 2.2
2015-Jan-24 17:33N 59°06' E 005°50'1111.2
2015-Jan-24 16:33N 59°07' E 005°28'8 8.5
2015-Jan-24 15:33N 59°03' E 005°14'  
2015-Jan-21 08:25N 57°52' E 004°19'22911.4
2015-Jan-20 12:21N 54°03' E 004°45'1511.3
2015-Jan-20 11:03N 53°48' E 004°46'611.1
2015-Jan-20 10:29N 53°42' E 004°47'1010.6
2015-Jan-20 09:33N 53°32' E 004°47'1111.0
2015-Jan-20 08:33N 53°22' E 004°40'1211.3
2015-Jan-20 07:29N 53°11' E 004°33'1111.8
2015-Jan-20 06:33N 53°00' E 004°28'1312.3
2015-Jan-20 05:31N 52°47' E 004°26'1313.1
2015-Jan-20 04:33N 52°35' E 004°21'1010.5
2015-Jan-20 03:33N 52°28' E 004°34'2 2.1
2015-Jan-20 02:34N 52°28' E 004°37'6 5.5
2015-Jan-20 01:33N 52°26' E 004°45'2 1.8
2015-Jan-20 00:31N 52°24' E 004°47'0 0.0
2015-Jan-19 23:31N 52°24' E 004°47'0 0.0
2015-Jan-19 22:28N 52°24' E 004°47'0 0.0
2015-Jan-19 21:31N 52°24' E 004°47'0 0.0
2015-Jan-19 20:31N 52°24' E 004°47'0 0.0
2015-Jan-19 19:31N 52°24' E 004°47'0 0.0
2015-Jan-19 18:31N 52°24' E 004°47'0 0.0
2015-Jan-19 17:31N 52°24' E 004°47'0 0.0
2015-Jan-19 16:31N 52°24' E 004°47'0 0.0
2015-Jan-19 15:31N 52°24' E 004°47'0 0.0
2015-Jan-19 14:31N 52°24' E 004°47'0 0.0
2015-Jan-19 13:31N 52°24' E 004°47'0 0.0
2015-Jan-19 12:31N 52°24' E 004°47'0 0.0
2015-Jan-19 11:31N 52°24' E 004°47'0 0.0
2015-Jan-19 10:31N 52°24' E 004°47'0 0.0
2015-Jan-19 09:31N 52°24' E 004°47'0 0.0
2015-Jan-19 08:31N 52°24' E 004°47'0 0.0
2015-Jan-19 07:31N 52°24' E 004°47'0 0.0
2015-Jan-19 06:31N 52°24' E 004°47'0 0.0
2015-Jan-19 05:31N 52°24' E 004°47'0 0.0
2015-Jan-19 04:31N 52°24' E 004°47'0 0.0
2015-Jan-19 03:31N 52°24' E 004°47'0 0.0
2015-Jan-19 02:31N 52°24' E 004°47'0 0.0
2015-Jan-19 01:31N 52°24' E 004°47'0 0.0
2015-Jan-19 00:31N 52°24' E 004°47'0 0.0
2015-Jan-18 23:31N 52°24' E 004°47'0 0.0
2015-Jan-18 22:31N 52°24' E 004°47'0 0.0
2015-Jan-18 21:31N 52°24' E 004°47'0 0.0
2015-Jan-18 20:31N 52°24' E 004°47'0 0.0
2015-Jan-18 19:31N 52°24' E 004°47'0 0.0
2015-Jan-18 18:31N 52°24' E 004°47'0 0.0
2015-Jan-18 17:31N 52°24' E 004°47'0 0.0
2015-Jan-18 16:31N 52°24' E 004°47'0 0.0
2015-Jan-18 15:31N 52°24' E 004°47'0 0.0
2015-Jan-18 14:31N 52°24' E 004°47'0 0.0
2015-Jan-18 13:31N 52°24' E 004°47'0 0.0
2015-Jan-18 12:31N 52°24' E 004°47'0 0.0
2015-Jan-18 11:31N 52°24' E 004°47'0 0.0
2015-Jan-18 10:31N 52°24' E 004°47'0 0.0
2015-Jan-18 09:31N 52°24' E 004°47'0 0.0
2015-Jan-18 08:31N 52°24' E 004°47'0 0.0
2015-Jan-18 07:31N 52°24' E 004°47'0 0.0
2015-Jan-18 06:31N 52°24' E 004°47'0 0.0
2015-Jan-18 05:31N 52°24' E 004°47'0 0.0
2015-Jan-18 04:31N 52°24' E 004°47'0 0.0
2015-Jan-18 03:31N 52°24' E 004°47'0 0.0
2015-Jan-18 02:25N 52°24' E 004°47'0 0.0
2015-Jan-18 01:31N 52°24' E 004°47'0 0.0
2015-Jan-18 00:28N 52°24' E 004°47'0 0.0
2015-Jan-17 23:31N 52°24' E 004°47'0 0.0
2015-Jan-17 22:31N 52°24' E 004°47'0 0.0
2015-Jan-17 21:31N 52°24' E 004°47'0 0.0
2015-Jan-17 20:31N 52°24' E 004°47'0 0.0
2015-Jan-17 19:31N 52°24' E 004°47'0 0.0
2015-Jan-17 18:31N 52°24' E 004°47'0 0.0
2015-Jan-17 17:31N 52°24' E 004°47'0 0.0
2015-Jan-17 16:31N 52°24' E 004°47'0 0.0
2015-Jan-17 15:31N 52°24' E 004°47'0 0.0
2015-Jan-17 14:31N 52°24' E 004°47'0 0.0
2015-Jan-17 13:31N 52°24' E 004°47'0 0.0
2015-Jan-17 12:31N 52°24' E 004°47'0 0.0
2015-Jan-17 11:31N 52°24' E 004°47'0 0.0
2015-Jan-17 10:31N 52°24' E 004°47'0 0.0
2015-Jan-17 09:31N 52°24' E 004°47'0 0.0
2015-Jan-17 08:31N 52°24' E 004°47'0 0.0
2015-Jan-17 07:31N 52°24' E 004°47'0 0.0
2015-Jan-17 06:31N 52°24' E 004°47'0 0.0
2015-Jan-17 05:31N 52°24' E 004°47'  
Track history (hours):
 
Tides and Currents Weather Stations Pressure Air Temp Water Temp Dewpoint Dewpoint Depression Visibility Wind Speed Wind Dir Waves Ship Positions

Wilson Norfolk

Last reported at 2015-Jan-27 05:28 UTC. Time now 2015-Jan-28 22:19 UTC.
Position N 55°27' E 015°42'.

Length 123 m; draft 7.3 m.

Type: Ship. MMSI: 248678000.

Date/timePositionNaut miles runAvg speedWind from/ knotsBaromVisibWave heightAir tempDewpointWater temp
2015-Jan-27 05:28N 55°27' E 015°42'1212.6
2015-Jan-27 04:33N 55°26' E 015°22'1312.6
2015-Jan-27 03:33N 55°25' E 015°00'1312.3
2015-Jan-27 02:32N 55°22' E 014°39'1212.2
2015-Jan-27 01:33N 55°13' E 014°25'3612.0
2015-Jan-26 22:33N 55°11' E 013°22'1312.6
2015-Jan-26 21:33N 55°13' E 012°60'1312.9
2015-Jan-26 20:33N 55°18' E 012°39'1211.8
2015-Jan-26 19:33N 55°30' E 012°41'9 9.3
2015-Jan-26 18:33N 55°39' E 012°41'10 9.9
2015-Jan-26 17:33N 55°49' E 012°42'1010.2
2015-Jan-26 16:33N 55°59' E 012°40'9 9.3
2015-Jan-26 15:33N 56°07' E 012°31'1110.9
2015-Jan-26 14:33N 56°13' E 012°15'1010.5
2015-Jan-26 13:33N 56°20' E 012°02'1110.5
2015-Jan-26 12:33N 56°31' E 011°58'1010.0
2015-Jan-26 11:33N 56°40' E 011°54'1010.2
2015-Jan-26 10:33N 56°50' E 011°48'1010.0
2015-Jan-26 09:33N 56°60' E 011°43'1010.0
2015-Jan-26 08:33N 57°09' E 011°36'1010.1
2015-Jan-26 07:33N 57°18' E 011°30'1010.4
2015-Jan-26 06:33N 57°28' E 011°23'1110.7
2015-Jan-26 05:33N 57°35' E 011°09'1111.2
2015-Jan-26 04:33N 57°43' E 010°53'1111.6
2015-Jan-26 03:33N 57°47' E 010°33'14811.0
2015-Jan-25 14:04N 58°00' E 005°56'610.5
2015-Jan-25 13:29N 58°04' E 005°47'1110.8
2015-Jan-25 12:27N 58°11' E 005°31'1410.6
2015-Jan-25 11:09N 58°22' E 005°13'710.9
2015-Jan-25 10:28N 58°29' E 005°16'1211.3
2015-Jan-25 09:26N 58°40' E 005°20'1011.2
2015-Jan-25 08:33N 58°50' E 005°26'1110.6
2015-Jan-25 07:33N 58°60' E 005°33'9 9.0
2015-Jan-25 06:33N 59°02' E 005°50'4 4.1
2015-Jan-25 05:33N 59°05' E 005°54'0 0.0
2015-Jan-25 04:33N 59°05' E 005°54'0 0.0
2015-Jan-25 03:33N 59°05' E 005°54'0 0.0
2015-Jan-25 02:33N 59°05' E 005°54'0 0.0
2015-Jan-25 01:33N 59°05' E 005°54'0 0.0
2015-Jan-25 00:33N 59°05' E 005°54'0 0.0
2015-Jan-24 23:33N 59°05' E 005°54'0 0.0
2015-Jan-24 22:33N 59°05' E 005°54'0 0.0
2015-Jan-24 21:33N 59°05' E 005°54'0 0.0
2015-Jan-24 20:33N 59°05' E 005°54'0 0.0
2015-Jan-24 19:33N 59°05' E 005°54'0 0.0
2015-Jan-24 18:33N 59°05' E 005°54'2 2.2
2015-Jan-24 17:33N 59°06' E 005°50'1111.2
2015-Jan-24 16:33N 59°07' E 005°28'8 8.5
2015-Jan-24 15:33N 59°03' E 005°14'  
2015-Jan-21 08:25N 57°52' E 004°19'22911.4
2015-Jan-20 12:21N 54°03' E 004°45'1511.3
2015-Jan-20 11:03N 53°48' E 004°46'611.1
2015-Jan-20 10:29N 53°42' E 004°47'1010.6
2015-Jan-20 09:33N 53°32' E 004°47'1111.0
2015-Jan-20 08:33N 53°22' E 004°40'1211.3
2015-Jan-20 07:29N 53°11' E 004°33'1111.8
2015-Jan-20 06:33N 53°00' E 004°28'1312.3
2015-Jan-20 05:31N 52°47' E 004°26'1313.1
2015-Jan-20 04:33N 52°35' E 004°21'1010.5
2015-Jan-20 03:33N 52°28' E 004°34'2 2.1
2015-Jan-20 02:34N 52°28' E 004°37'6 5.5
2015-Jan-20 01:33N 52°26' E 004°45'2 1.8
2015-Jan-20 00:31N 52°24' E 004°47'0 0.0
2015-Jan-19 23:31N 52°24' E 004°47'0 0.0
2015-Jan-19 22:28N 52°24' E 004°47'0 0.0
2015-Jan-19 21:31N 52°24' E 004°47'0 0.0
2015-Jan-19 20:31N 52°24' E 004°47'0 0.0
2015-Jan-19 19:31N 52°24' E 004°47'0 0.0
2015-Jan-19 18:31N 52°24' E 004°47'0 0.0
2015-Jan-19 17:31N 52°24' E 004°47'0 0.0
2015-Jan-19 16:31N 52°24' E 004°47'0 0.0
2015-Jan-19 15:31N 52°24' E 004°47'0 0.0
2015-Jan-19 14:31N 52°24' E 004°47'0 0.0
2015-Jan-19 13:31N 52°24' E 004°47'0 0.0
2015-Jan-19 12:31N 52°24' E 004°47'0 0.0
2015-Jan-19 11:31N 52°24' E 004°47'0 0.0
2015-Jan-19 10:31N 52°24' E 004°47'0 0.0
2015-Jan-19 09:31N 52°24' E 004°47'0 0.0
2015-Jan-19 08:31N 52°24' E 004°47'0 0.0
2015-Jan-19 07:31N 52°24' E 004°47'0 0.0
2015-Jan-19 06:31N 52°24' E 004°47'0 0.0
2015-Jan-19 05:31N 52°24' E 004°47'0 0.0
2015-Jan-19 04:31N 52°24' E 004°47'0 0.0
2015-Jan-19 03:31N 52°24' E 004°47'0 0.0
2015-Jan-19 02:31N 52°24' E 004°47'0 0.0
2015-Jan-19 01:31N 52°24' E 004°47'0 0.0
2015-Jan-19 00:31N 52°24' E 004°47'0 0.0
2015-Jan-18 23:31N 52°24' E 004°47'0 0.0
2015-Jan-18 22:31N 52°24' E 004°47'0 0.0
2015-Jan-18 21:31N 52°24' E 004°47'0 0.0
2015-Jan-18 20:31N 52°24' E 004°47'0 0.0
2015-Jan-18 19:31N 52°24' E 004°47'0 0.0
2015-Jan-18 18:31N 52°24' E 004°47'0 0.0
2015-Jan-18 17:31N 52°24' E 004°47'0 0.0
2015-Jan-18 16:31N 52°24' E 004°47'0 0.0
2015-Jan-18 15:31N 52°24' E 004°47'0 0.0
2015-Jan-18 14:31N 52°24' E 004°47'0 0.0
2015-Jan-18 13:31N 52°24' E 004°47'0 0.0
2015-Jan-18 12:31N 52°24' E 004°47'0 0.0
2015-Jan-18 11:31N 52°24' E 004°47'0 0.0
2015-Jan-18 10:31N 52°24' E 004°47'0 0.0
2015-Jan-18 09:31N 52°24' E 004°47'0 0.0
2015-Jan-18 08:31N 52°24' E 004°47'0 0.0
2015-Jan-18 07:31N 52°24' E 004°47'0 0.0
2015-Jan-18 06:31N 52°24' E 004°47'0 0.0
2015-Jan-18 05:31N 52°24' E 004°47'0 0.0
2015-Jan-18 04:31N 52°24' E 004°47'0 0.0
2015-Jan-18 03:31N 52°24' E 004°47'0 0.0
2015-Jan-18 02:25N 52°24' E 004°47'0 0.0
2015-Jan-18 01:31N 52°24' E 004°47'0 0.0
2015-Jan-18 00:28N 52°24' E 004°47'0 0.0
2015-Jan-17 23:31N 52°24' E 004°47'0 0.0
2015-Jan-17 22:31N 52°24' E 004°47'0 0.0
2015-Jan-17 21:31N 52°24' E 004°47'0 0.0
2015-Jan-17 20:31N 52°24' E 004°47'0 0.0
2015-Jan-17 19:31N 52°24' E 004°47'0 0.0
2015-Jan-17 18:31N 52°24' E 004°47'0 0.0
2015-Jan-17 17:31N 52°24' E 004°47'0 0.0
2015-Jan-17 16:31N 52°24' E 004°47'0 0.0
2015-Jan-17 15:31N 52°24' E 004°47'0 0.0
2015-Jan-17 14:31N 52°24' E 004°47'0 0.0
2015-Jan-17 13:31N 52°24' E 004°47'0 0.0
2015-Jan-17 12:31N 52°24' E 004°47'0 0.0
2015-Jan-17 11:31N 52°24' E 004°47'0 0.0
2015-Jan-17 10:31N 52°24' E 004°47'0 0.0
2015-Jan-17 09:31N 52°24' E 004°47'0 0.0
2015-Jan-17 08:31N 52°24' E 004°47'0 0.0
2015-Jan-17 07:31N 52°24' E 004°47'0 0.0
2015-Jan-17 06:31N 52°24' E 004°47'0 0.0
2015-Jan-17 05:31N 52°24' E 004°47'  

Dump ship's entire track history